Time;durP1;ratioP1;P1;durP2;ratioP2;P2;SDS_P1;SDS_P2;PMS_P1;PMS_P2;Temp;Humidity;BMP_temperature;BMP_pressure;BME280_temperature;BME280_humidity;BME280_pressure;Samples;Min_cycle;Max_cycle;Signal;HPM_P1;HPM_P2
2022/01/27 00:05:18;;;;;;;9.82;6.53;;;;;;;3.48;58.12;95198.44;5031187;28;20478;-71
2022/01/27 00:07:58;;;;;;;6.33;5.60;;;;;;;3.22;58.98;95205.94;5025945;28;20160;-71
2022/01/27 00:13:17;;;;;;;9.30;6.03;;;;;;;3.02;59.49;95197.34;4986844;28;20231;-71
2022/01/27 00:15:46;;;;;;;9.23;5.63;;;;;;;3.70;57.51;95194.78;5026348;28;20271;-72
2022/01/27 00:18:17;;;;;;;12.52;6.88;;;;;;;3.90;56.86;95195.53;5025858;28;20702;-72
2022/01/27 00:20:44;;;;;;;6.45;5.30;;;;;;;3.38;58.65;95189.84;5033402;28;20555;-71
2022/01/27 00:23:10;;;;;;;4.80;4.40;;;;;;;3.37;58.59;95188.25;5045470;28;20258;-71
2022/01/27 00:25:35;;;;;;;6.37;4.33;;;;;;;3.52;57.90;95187.69;5014618;28;20203;-72
2022/01/27 00:28:01;;;;;;;7.30;4.67;;;;;;;3.22;58.51;95195.59;5025546;28;20199;-72
2022/01/27 00:30:26;;;;;;;7.57;5.80;;;;;;;3.43;57.87;95192.88;5039521;28;20273;-72
2022/01/27 00:32:52;;;;;;;8.30;5.30;;;;;;;3.49;57.33;95187.97;5045134;28;20183;-72
2022/01/27 00:35:17;;;;;;;6.53;5.70;;;;;;;3.58;57.45;95191.50;5027817;28;20214;-72
2022/01/27 00:37:43;;;;;;;9.67;4.70;;;;;;;3.40;57.69;95187.97;5040184;28;20191;-71
2022/01/27 00:40:12;;;;;;;6.23;5.27;;;;;;;3.60;57.92;95184.41;5045227;28;20187;-72
2022/01/27 00:42:41;;;;;;;7.60;4.97;;;;;;;3.54;57.50;95179.78;5030083;28;20315;-72
2022/01/27 00:45:08;;;;;;;4.25;3.80;;;;;;;2.60;59.75;95182.84;5025075;28;20263;-72
2022/01/27 00:47:34;;;;;;;3.88;3.08;;;;;;;3.19;58.58;95186.34;5025299;28;20190;-72
2022/01/27 00:49:59;;;;;;;5.55;4.75;;;;;;;3.55;57.56;95181.44;5045360;28;20211;-72
2022/01/27 00:52:35;;;;;;;5.67;5.07;;;;;;;3.48;57.80;95180.34;5031532;28;20184;-71
2022/01/27 00:55:01;;;;;;;7.20;5.53;;;;;;;3.37;57.63;95183.06;5025452;28;20211;-73
2022/01/27 01:00:11;;;;;;;5.00;3.75;;;;;;;2.96;58.14;95184.94;5045028;28;20225;-72
2022/01/27 01:07:40;;;;;;;9.13;7.18;;;;;;;3.31;57.48;95192.19;5025219;28;20215;-72
2022/01/27 01:11:00;;;;;;;12.70;8.13;;;;;;;3.29;57.57;95183.75;5024994;28;20214;-72
2022/01/27 01:15:38;;;;;;;8.27;5.43;;;;;;;3.01;58.27;95177.59;5044842;28;20194;-72
2022/01/27 01:34:15;;;;;;;6.50;3.20;;;;;;;3.07;57.45;95169.31;5028635;28;20685;-73
2022/01/27 01:37:05;;;;;;;14.80;6.30;;;;;;;3.23;57.59;95163.63;5010834;28;20512;-72
2022/01/27 01:39:33;;;;;;;6.40;5.80;;;;;;;2.85;58.95;95168.59;5018972;28;20525;-72
2022/01/27 01:42:00;;;;;;;10.48;5.90;;;;;;;3.11;57.84;95178.41;5009033;28;20185;-72
2022/01/27 01:44:27;;;;;;;8.65;6.78;;;;;;;3.30;57.71;95169.84;5008534;28;20173;-72
2022/01/27 01:46:53;;;;;;;8.80;5.75;;;;;;;3.18;58.35;95164.00;5008760;28;20185;-72
2022/01/27 01:49:22;;;;;;;8.97;5.87;;;;;;;3.30;58.13;95167.25;5010464;28;20179;-71
2022/01/27 01:51:47;;;;;;;7.63;6.53;;;;;;;3.34;57.43;95158.31;5047957;28;20414;-72
2022/01/27 01:54:14;;;;;;;5.33;3.50;;;;;;;3.31;57.22;95155.97;5030005;28;20456;-73
2022/01/27 01:56:42;;;;;;;11.43;6.40;;;;;;;3.68;56.45;95153.50;5045672;28;20207;-72
2022/01/27 01:59:07;;;;;;;14.87;6.47;;;;;;;3.46;57.23;95146.84;5029575;28;20280;-72
2022/01/27 02:01:35;;;;;;;11.83;7.60;;;;;;;3.40;58.02;95144.81;5028095;28;20427;-72
2022/01/27 02:04:05;;;;;;;8.18;5.65;;;;;;;3.57;57.41;95148.47;5027990;28;20168;-72
2022/01/27 02:06:37;;;;;;;10.45;6.03;;;;;;;2.92;59.02;95141.28;5023595;28;20267;-73
2022/01/27 02:19:53;;;;;;;7.35;4.50;;;;;;;3.26;57.74;95130.53;5024540;28;20204;-72
2022/01/27 02:22:20;;;;;;;16.55;4.65;;;;;;;3.19;58.40;95128.63;5008021;28;20168;-72
2022/01/27 02:24:45;;;;;;;2.00;1.90;;;;;;;2.90;58.84;95130.25;5007950;28;20205;-72
2022/01/27 02:27:11;;;;;;;7.03;4.73;;;;;;;3.16;58.43;95124.53;5013181;28;20729;-72
2022/01/27 02:29:36;;;;;;;4.53;4.10;;;;;;;3.18;58.22;95122.63;5036916;28;20509;-73
2022/01/27 02:32:02;;;;;;;5.83;3.70;;;;;;;3.25;57.45;95126.31;5042114;28;20226;-72
2022/01/27 02:34:28;;;;;;;4.40;3.83;;;;;;;2.81;58.63;95125.91;5009630;28;20271;-72
2022/01/27 02:36:54;;;;;;;3.77;3.47;;;;;;;2.97;58.90;95132.31;5007365;28;20447;-73
2022/01/27 02:39:20;;;;;;;3.77;3.27;;;;;;;3.30;58.00;95126.72;5043687;28;20532;-73
2022/01/27 02:41:50;;;;;;;5.13;3.50;;;;;;;3.02;58.50;95120.59;5029370;28;20410;-73
2022/01/27 02:44:48;;;;;;;3.80;3.40;;;;;;;3.38;57.32;95125.19;5046861;28;20398;-71
2022/01/27 02:47:15;;;;;;;4.05;3.22;;;;;;;3.26;58.31;95127.13;5021892;28;20426;-71
2022/01/27 02:49:42;;;;;;;2.72;2.45;;;;;;;3.54;56.79;95138.38;5026926;28;20279;-72
2022/01/27 02:52:08;;;;;;;3.90;3.45;;;;;;;3.38;57.47;95131.19;5027046;28;20184;-72
2022/01/27 02:54:35;;;;;;;3.20;2.70;;;;;;;3.34;57.67;95132.44;5026745;28;20212;-72
2022/01/27 02:57:01;;;;;;;2.53;2.20;;;;;;;3.30;57.55;95131.91;5010330;28;20194;-71
2022/01/27 02:59:27;;;;;;;3.00;2.20;;;;;;;3.15;58.03;95128.09;5026769;28;20172;-72
2022/01/27 03:01:52;;;;;;;1.33;1.23;;;;;;;2.84;58.97;95133.38;5026798;28;20187;-72
2022/01/27 03:04:19;;;;;;;1.85;1.75;;;;;;;2.97;59.40;95135.69;5022581;28;20632;-72
2022/01/27 03:06:46;;;;;;;1.70;1.60;;;;;;;3.04;58.80;95135.97;5007232;28;20533;-72
2022/01/27 03:09:13;;;;;;;2.97;2.33;;;;;;;3.24;58.37;95134.19;5026176;28;20281;-72
2022/01/27 03:11:47;;;;;;;3.47;2.77;;;;;;;3.11;58.90;95137.06;5026839;28;20434;-72
2022/01/27 03:14:22;;;;;;;2.08;1.67;;;;;;;2.89;59.74;95128.63;5029823;28;20461;-71
2022/01/27 03:16:49;;;;;;;2.17;2.00;;;;;;;2.90;59.40;95130.25;5046459;28;20174;-72
2022/01/27 03:19:15;;;;;;;2.10;2.00;;;;;;;3.18;58.35;95127.00;5009210;28;20431;-72
2022/01/27 03:21:41;;;;;;;1.20;1.20;;;;;;;3.39;57.79;95124.25;5026402;28;20408;-72
2022/01/27 03:24:07;;;;;;;2.20;2.10;;;;;;;3.33;58.35;95126.44;5037248;28;20251;-73
2022/01/27 03:26:32;;;;;;;3.67;3.13;;;;;;;3.38;58.34;95127.78;5046004;28;20230;-72
2022/01/27 03:28:59;;;;;;;2.70;2.50;;;;;;;3.45;58.19;95123.69;5046257;28;20171;-73
2022/01/27 03:31:24;;;;;;;2.80;2.03;;;;;;;3.49;57.95;95136.22;5023556;28;20316;-71
2022/01/27 03:33:50;;;;;;;3.33;2.40;;;;;;;3.50;57.63;95137.84;5026144;28;20451;-71
2022/01/27 03:36:16;;;;;;;4.67;3.03;;;;;;;3.07;59.27;95131.38;5022450;28;20195;-71
2022/01/27 03:38:41;;;;;;;3.35;3.10;;;;;;;3.28;58.55;95128.63;5025570;28;20204;-72
2022/01/27 03:41:08;;;;;;;2.37;2.17;;;;;;;3.00;59.53;95124.25;5027067;28;20264;-72
2022/01/27 03:43:36;;;;;;;2.67;2.47;;;;;;;2.87;59.81;95130.53;5045866;28;20179;-72
2022/01/27 03:46:02;;;;;;;3.08;2.88;;;;;;;3.28;58.96;95138.13;5044746;28;20179;-71
2022/01/27 03:48:28;;;;;;;2.97;2.33;;;;;;;3.10;59.17;95135.44;5025476;28;20188;-72
2022/01/27 03:50:54;;;;;;;4.50;3.07;;;;;;;3.20;58.72;95141.41;5017129;28;20263;-72
2022/01/27 03:53:20;;;;;;;4.73;1.90;;;;;;;2.95;59.58;95136.78;5006350;28;20515;-72
2022/01/27 03:55:46;;;;;;;2.63;2.43;;;;;;;2.89;60.15;95144.13;5006413;28;20193;-72
2022/01/27 03:58:11;;;;;;;2.33;2.13;;;;;;;2.73;60.05;95143.81;5007457;28;20184;-72
2022/01/27 04:00:37;;;;;;;4.67;2.87;;;;;;;2.58;60.92;95135.66;5015223;28;20222;-72
2022/01/27 04:03:07;;;;;;;2.50;2.40;;;;;;;3.05;59.76;95150.53;5028483;28;20289;-72
2022/01/27 04:05:37;;;;;;;4.28;2.72;;;;;;;2.91;59.67;95149.97;5045891;28;20243;-72
2022/01/27 04:08:04;;;;;;;2.45;2.25;;;;;;;3.02;60.06;95143.06;5010008;28;20658;-72
2022/01/27 04:10:30;;;;;;;1.00;0.90;;;;;;;3.07;59.76;95146.03;5009632;28;20188;-72
2022/01/27 04:12:55;;;;;;;3.87;3.13;;;;;;;2.98;60.54;95157.19;5008155;28;20263;-72
2022/01/27 04:15:21;;;;;;;2.53;2.27;;;;;;;2.87;60.93;95151.19;5025795;28;20192;-72
2022/01/27 04:17:46;;;;;;;4.33;3.53;;;;;;;2.97;60.46;95145.22;5027329;28;20199;-72
2022/01/27 04:20:12;;;;;;;2.50;2.40;;;;;;;3.45;58.72;95158.16;5045446;28;20189;-72
2022/01/27 04:22:38;;;;;;;2.33;2.20;;;;;;;3.00;60.16;95160.44;5045342;28;20182;-72
2022/01/27 04:25:04;;;;;;;2.90;2.70;;;;;;;3.51;58.52;95156.78;5045103;28;20310;-72
2022/01/27 04:27:33;;;;;;;3.22;2.97;;;;;;;3.47;59.13;95156.25;5013237;28;20231;-71
2022/01/27 04:29:58;;;;;;;3.55;3.25;;;;;;;3.60;58.85;95155.94;5025198;28;20184;-73
2022/01/27 04:32:32;;;;;;;3.80;2.70;;;;;;;3.52;59.00;95156.63;5005527;28;20253;-73
2022/01/27 04:35:02;;;;;;;3.70;3.37;;;;;;;3.23;59.32;95154.06;5002780;28;20951;-72
2022/01/27 04:37:30;;;;;;;3.63;3.33;;;;;;;3.43;58.87;95160.03;4995056;28;20424;-72
2022/01/27 04:40:07;;;;;;;3.50;3.30;;;;;;;3.00;60.48;95171.63;5005486;28;20187;-71
2022/01/27 04:42:46;;;;;;;2.27;2.07;;;;;;;3.00;60.96;95168.19;5006062;28;20173;-72
2022/01/27 04:45:13;;;;;;;3.63;3.40;;;;;;;3.29;59.75;95168.22;4993534;28;20432;-72
2022/01/27 04:47:44;;;;;;;3.72;2.65;;;;;;;3.08;60.25;95158.84;4986446;28;20182;-72
2022/01/27 04:50:10;;;;;;;4.15;3.55;;;;;;;3.44;59.82;95168.63;4986164;28;20189;-71
2022/01/27 04:52:40;;;;;;;3.50;3.23;;;;;;;2.84;61.12;95173.91;4986085;28;20196;-72
2022/01/27 04:55:09;;;;;;;3.75;3.45;;;;;;;2.88;61.29;95168.34;5001619;28;20227;-72
2022/01/27 04:57:37;;;;;;;3.70;3.40;;;;;;;3.21;60.94;95168.09;5004974;28;20193;-72
2022/01/27 05:00:04;;;;;;;2.72;2.63;;;;;;;3.36;59.83;95168.50;5006688;28;20173;-73
2022/01/27 05:04:58;;;;;;;4.78;4.35;;;;;;;3.05;61.01;95178.97;5010308;28;20193;-72
2022/01/27 05:07:24;;;;;;;4.60;4.10;;;;;;;3.05;62.00;95184.94;5009280;28;20184;-72
2022/01/27 05:09:55;;;;;;;5.00;4.60;;;;;;;3.31;60.39;95180.06;5008978;28;20350;-71
2022/01/27 05:12:34;;;;;;;4.65;4.25;;;;;;;3.53;60.04;95185.94;4995454;28;20643;-72
2022/01/27 05:15:00;;;;;;;4.70;4.30;;;;;;;3.18;60.29;95189.06;5028609;28;20221;-72
2022/01/27 05:17:26;;;;;;;5.00;4.47;;;;;;;3.09;61.55;95191.50;5011221;28;20426;-72
2022/01/27 05:19:51;;;;;;;5.27;4.77;;;;;;;3.50;59.70;95193.97;5027051;28;20184;-72
2022/01/27 05:22:17;;;;;;;4.10;3.80;;;;;;;2.92;61.88;95185.22;5001146;28;20444;-71
2022/01/27 05:24:43;;;;;;;4.30;3.93;;;;;;;3.04;61.11;95192.84;5008975;28;20181;-73
2022/01/27 05:27:08;;;;;;;5.60;4.63;;;;;;;3.19;60.99;95195.84;5022752;28;20463;-73
2022/01/27 05:29:34;;;;;;;4.73;4.47;;;;;;;2.96;61.49;95193.53;5025295;28;20196;-73
2022/01/27 05:31:59;;;;;;;3.87;3.50;;;;;;;2.80;62.89;95204.38;5023480;28;20192;-72
2022/01/27 05:34:24;;;;;;;3.93;3.57;;;;;;;2.90;62.45;95200.03;5028229;28;20222;-72
2022/01/27 05:36:50;;;;;;;5.27;4.87;;;;;;;3.28;61.46;95195.88;5029979;28;20184;-72
2022/01/27 05:39:16;;;;;;;5.80;5.30;;;;;;;3.25;61.43;95196.13;5025031;28;20211;-72
2022/01/27 05:41:42;;;;;;;4.50;4.13;;;;;;;3.04;62.43;95209.19;5010029;28;20191;-72
2022/01/27 05:44:08;;;;;;;6.05;5.45;;;;;;;3.62;60.44;95202.38;5027245;28;20184;-72
2022/01/27 05:46:34;;;;;;;6.93;4.70;;;;;;;3.54;60.73;95200.47;5027498;28;20223;-72
2022/01/27 05:48:59;;;;;;;5.30;4.80;;;;;;;3.13;62.01;95207.56;5025444;28;20620;-72
2022/01/27 05:51:25;;;;;;;6.90;6.20;;;;;;;3.17;61.89;95206.34;5024668;28;20196;-72
2022/01/27 05:53:56;;;;;;;4.40;4.00;;;;;;;3.19;61.67;95211.34;5008557;28;20212;-72
2022/01/27 05:56:22;;;;;;;6.20;5.35;;;;;;;3.07;62.37;95210.66;5004703;28;20755;-73
2022/01/27 05:58:47;;;;;;;5.73;5.23;;;;;;;3.15;61.60;95220.34;5025430;28;20196;-73
2022/01/27 06:01:13;;;;;;;3.40;3.10;;;;;;;3.20;61.93;95218.19;5024236;28;20188;-72
2022/01/27 06:03:39;;;;;;;4.33;3.33;;;;;;;3.21;62.24;95225.81;5030286;28;20191;-72
2022/01/27 06:06:04;;;;;;;7.10;6.13;;;;;;;3.40;61.21;95226.78;5027329;28;20189;-73
2022/01/27 06:08:30;;;;;;;5.83;5.33;;;;;;;3.05;62.15;95233.25;5029424;28;20308;-73
2022/01/27 06:10:59;;;;;;;6.30;5.60;;;;;;;3.44;61.71;95222.97;5028793;28;20203;-73
2022/01/27 06:13:25;;;;;;;6.97;6.27;;;;;;;3.37;61.79;95235.59;5009353;28;20247;-73
2022/01/27 06:15:50;;;;;;;7.00;5.07;;;;;;;3.49;60.81;95223.34;5029711;28;20438;-72
2022/01/27 06:18:16;;;;;;;9.53;8.10;;;;;;;3.26;62.19;95228.81;5027974;28;20489;-72
2022/01/27 06:20:44;;;;;;;6.70;5.97;;;;;;;3.79;60.78;95232.75;5011084;28;20252;-72
2022/01/27 06:23:11;;;;;;;4.60;2.00;;;;;;;3.02;62.39;95225.78;5026740;28;20189;-72
2022/01/27 06:25:36;;;;;;;7.40;5.33;;;;;;;3.06;62.27;95238.31;5027880;28;20435;-72
2022/01/27 06:28:02;;;;;;;7.27;6.57;;;;;;;2.73;64.07;95234.25;5004098;28;20435;-72
2022/01/27 06:30:27;;;;;;;10.53;7.73;;;;;;;3.02;63.17;95241.28;5029325;28;20191;-72
2022/01/27 06:32:53;;;;;;;4.03;3.73;;;;;;;2.98;63.34;95239.91;5025469;28;20207;-72
2022/01/27 06:35:19;;;;;;;6.43;5.57;;;;;;;2.87;63.06;95244.25;5028457;28;20192;-71
2022/01/27 06:37:47;;;;;;;7.87;6.43;;;;;;;2.75;63.91;95250.44;5025814;28;20252;-72
2022/01/27 06:40:14;;;;;;;12.87;9.10;;;;;;;3.26;62.46;95248.66;5026593;28;20638;-72
2022/01/27 06:42:43;;;;;;;15.57;9.23;;;;;;;3.75;61.17;95239.16;5024682;28;21007;-72
2022/01/27 06:45:09;;;;;;;12.23;9.13;;;;;;;3.63;61.10;95246.25;5009187;28;20506;-72
2022/01/27 06:47:35;;;;;;;13.07;9.43;;;;;;;3.72;60.59;95240.25;5005120;28;20474;-73
2022/01/27 06:50:00;;;;;;;11.00;8.37;;;;;;;3.97;59.90;95230.28;5026226;28;20430;-72
2022/01/27 06:52:28;;;;;;;13.07;6.87;;;;;;;3.98;60.09;95238.84;5026402;28;20206;-72
2022/01/27 06:54:57;;;;;;;12.03;8.43;;;;;;;3.91;59.88;95243.78;5016194;28;20227;-72
2022/01/27 06:57:24;;;;;;;12.37;7.57;;;;;;;3.92;59.55;95235.03;5027157;28;20942;-71
2022/01/27 06:59:51;;;;;;;7.80;6.00;;;;;;;3.81;59.61;95237.78;5025655;28;20458;-73
2022/01/27 07:02:17;;;;;;;9.17;6.70;;;;;;;3.55;60.67;95240.94;5009143;28;20528;-72
2022/01/27 07:04:42;;;;;;;25.70;10.33;;;;;;;3.82;59.94;95234.25;5008754;28;20496;-73
2022/01/27 07:07:08;;;;;;;9.93;7.20;;;;;;;3.99;59.95;95241.31;5025768;28;20192;-73
2022/01/27 07:09:33;;;;;;;14.80;8.50;;;;;;;4.30;58.87;95239.31;5022628;28;20203;-73
2022/01/27 07:11:59;;;;;;;7.30;6.60;;;;;;;3.42;60.41;95246.38;5032236;28;20196;-72
2022/01/27 07:14:25;;;;;;;17.50;7.30;;;;;;;3.82;60.44;95236.84;5025980;28;20323;-72
2022/01/27 07:16:51;;;;;;;9.87;7.80;;;;;;;3.78;60.18;95249.25;5025776;28;20918;-73
2022/01/27 07:19:16;;;;;;;27.50;10.07;;;;;;;4.03;59.59;95245.25;5019955;28;20196;-72
2022/01/27 07:21:42;;;;;;;13.60;8.63;;;;;;;4.11;59.48;95247.94;5026301;28;20694;-73
2022/01/27 07:24:08;;;;;;;12.53;11.23;;;;;;;4.28;59.41;95250.78;5024513;28;20188;-72
2022/01/27 07:26:33;;;;;;;23.40;14.07;;;;;;;4.50;57.75;95253.03;5024687;28;20228;-72
2022/01/27 07:28:59;;;;;;;11.83;8.63;;;;;;;3.88;59.03;95251.81;5025636;28;20449;-73
2022/01/27 07:31:25;;;;;;;11.53;8.13;;;;;;;4.06;59.00;95247.56;5025021;28;20188;-73
2022/01/27 07:33:52;;;;;;;12.57;10.37;;;;;;;4.35;58.46;95254.47;5025031;28;20287;-73
2022/01/27 07:36:19;;;;;;;9.27;6.97;;;;;;;4.31;57.66;95247.94;5026187;28;20510;-73
2022/01/27 07:38:45;;;;;;;13.27;9.73;;;;;;;4.32;58.61;95262.50;5026708;28;20481;-73
2022/01/27 07:41:13;;;;;;;12.57;9.73;;;;;;;4.29;58.92;95258.44;5030596;28;20513;-72
2022/01/27 07:43:40;;;;;;;9.70;8.70;;;;;;;3.59;60.63;95267.38;5026535;28;20419;-73
2022/01/27 07:46:06;;;;;;;7.80;6.53;;;;;;;3.76;60.27;95258.09;5024716;28;20447;-73
2022/01/27 07:48:32;;;;;;;9.63;7.93;;;;;;;3.43;61.65;95263.53;5009911;28;20426;-73
2022/01/27 07:50:58;;;;;;;7.43;6.77;;;;;;;3.28;61.94;95260.53;5025250;28;20454;-73
2022/01/27 07:53:23;;;;;;;19.20;14.40;;;;;;;3.35;62.14;95262.56;5024574;28;20459;-73
2022/01/27 07:55:49;;;;;;;12.17;6.97;;;;;;;3.78;61.09;95263.97;5013509;28;20292;-73
2022/01/27 07:58:14;;;;;;;13.70;8.80;;;;;;;3.53;62.22;95268.72;5029468;28;20194;-73
2022/01/27 08:00:40;;;;;;;12.40;8.50;;;;;;;2.80;64.11;95268.97;5008357;28;20187;-72
2022/01/27 08:03:06;;;;;;;12.53;8.53;;;;;;;2.95;64.11;95271.19;5025655;28;20192;-73
2022/01/27 08:05:32;;;;;;;23.87;13.73;;;;;;;3.54;62.64;95272.13;4990659;28;20206;-71
2022/01/27 08:07:58;;;;;;;15.33;10.03;;;;;;;3.27;63.74;95271.81;5005029;28;20207;-72
2022/01/27 08:10:24;;;;;;;11.17;9.37;;;;;;;3.50;63.47;95267.22;5024570;28;20439;-72
2022/01/27 08:12:49;;;;;;;10.30;8.10;;;;;;;3.26;63.97;95271.94;5024961;28;20462;-72
2022/01/27 08:15:19;;;;;;;23.87;11.37;;;;;;;3.58;62.86;95269.13;5026073;28;20247;-72
2022/01/27 08:17:45;;;;;;;17.63;9.93;;;;;;;3.77;62.45;95273.47;5024689;28;20540;-73
2022/01/27 08:20:10;;;;;;;14.20;10.70;;;;;;;3.97;61.87;95274.28;5023894;28;20450;-72
2022/01/27 08:22:43;;;;;;;20.67;11.67;;;;;;;3.89;61.57;95279.34;5024630;28;20775;-73
2022/01/27 08:25:09;;;;;;;14.77;12.60;;;;;;;3.81;61.72;95268.84;5024806;28;20188;-73
2022/01/27 08:27:36;;;;;;;5.23;4.73;;;;;;;3.22;63.37;95262.81;5023012;28;20552;-72
2022/01/27 08:30:05;;;;;;;14.80;10.73;;;;;;;3.59;63.20;95280.31;5025142;28;20223;-72
2022/01/27 08:33:18;;;;;;;8.20;6.77;;;;;;;3.32;63.23;95279.19;5022197;28;20431;-72
2022/01/27 08:35:19;;;;;;;10.50;8.57;;;;;;;3.04;64.64;95280.75;5006001;28;20948;-73
2022/01/27 08:37:46;;;;;;;10.70;7.73;;;;;;;3.18;64.84;95282.16;5027296;28;20439;-72
2022/01/27 08:40:14;;;;;;;16.53;10.30;;;;;;;3.94;62.17;95284.09;5025323;28;20430;-72
2022/01/27 08:42:43;;;;;;;7.70;7.00;;;;;;;3.50;62.81;95281.91;5027982;28;20455;-72
2022/01/27 08:45:16;;;;;;;17.80;11.37;;;;;;;3.56;62.98;95280.56;5018966;28;20430;-73
2022/01/27 08:47:43;;;;;;;12.17;9.33;;;;;;;3.55;62.91;95289.25;4990809;28;20431;-73
2022/01/27 08:50:11;;;;;;;28.27;11.87;;;;;;;3.87;61.76;95284.66;5023363;28;20485;-73
2022/01/27 08:52:39;;;;;;;14.10;9.67;;;;;;;4.11;61.24;95280.81;5025045;28;20513;-72
2022/01/27 08:55:06;;;;;;;7.63;6.20;;;;;;;3.42;62.44;95280.00;5020877;28;20546;-72
2022/01/27 08:57:32;;;;;;;16.10;8.93;;;;;;;3.31;62.88;95288.69;5006989;28;20431;-73
2022/01/27 08:59:57;;;;;;;14.17;9.70;;;;;;;4.07;61.78;95289.81;5024482;28;20941;-73
2022/01/27 09:02:23;;;;;;;41.63;12.20;;;;;;;4.43;59.81;95284.84;5003573;28;20196;-73
2022/01/27 09:04:49;;;;;;;10.57;8.63;;;;;;;3.86;61.27;95298.53;5024501;28;20191;-73
2022/01/27 09:07:15;;;;;;;15.03;10.97;;;;;;;4.21;60.94;95286.81;5015507;28;20448;-73
2022/01/27 09:09:44;;;;;;;12.53;9.93;;;;;;;4.49;59.75;95295.44;5006461;28;20215;-72
2022/01/27 09:12:11;;;;;;;14.57;11.43;;;;;;;4.39;60.65;95294.66;5022164;28;20423;-73
2022/01/27 09:14:38;;;;;;;12.67;9.20;;;;;;;4.24;61.05;95301.25;5006729;28;20854;-73
2022/01/27 09:17:05;;;;;;;12.70;11.30;;;;;;;4.88;58.89;95303.13;5026273;28;20438;-73
2022/01/27 09:19:36;;;;;;;21.93;11.70;;;;;;;4.43;60.55;95290.84;5024569;28;20418;-72
2022/01/27 09:22:06;;;;;;;24.00;12.07;;;;;;;4.45;60.89;95290.69;5024744;28;20419;-73
2022/01/27 09:24:38;;;;;;;18.00;12.00;;;;;;;4.10;62.06;95289.56;5022727;28;20481;-73
2022/01/27 09:27:05;;;;;;;13.80;11.70;;;;;;;4.20;61.40;95284.34;5024587;28;20490;-73
2022/01/27 09:29:31;;;;;;;12.90;11.10;;;;;;;3.70;62.79;95293.94;5006747;28;20518;-73
2022/01/27 09:31:58;;;;;;;23.87;11.73;;;;;;;3.49;63.58;95290.63;5024712;28;20419;-73
2022/01/27 09:34:23;;;;;;;19.13;11.80;;;;;;;4.55;60.79;95282.91;5023045;28;20459;-73
2022/01/27 09:36:51;;;;;;;15.90;12.00;;;;;;;4.53;59.96;95282.22;5025067;28;20434;-73
2022/01/27 09:39:18;;;;;;;17.00;11.80;;;;;;;4.81;59.21;95270.94;5024503;28;20195;-73
2022/01/27 09:41:45;;;;;;;16.53;9.90;;;;;;;4.03;60.13;95263.38;5027033;28;20453;-73
2022/01/27 09:44:13;;;;;;;15.20;9.43;;;;;;;4.07;60.04;95269.91;5022740;28;20466;-73
2022/01/27 09:46:41;;;;;;;15.23;9.03;;;;;;;4.18;60.46;95270.72;5027605;28;20422;-73
2022/01/27 09:49:13;;;;;;;14.60;8.97;;;;;;;4.23;59.44;95265.94;5027759;28;20505;-73
2022/01/27 09:51:45;;;;;;;15.60;11.13;;;;;;;4.93;58.49;95265.56;5027443;28;21025;-73
2022/01/27 09:54:11;;;;;;;14.73;11.50;;;;;;;4.98;58.28;95263.34;5042116;28;20861;-73
2022/01/27 09:56:40;;;;;;;13.10;9.07;;;;;;;4.57;59.19;95265.44;5030242;28;20430;-75
2022/01/27 09:59:06;;;;;;;9.27;8.27;;;;;;;4.55;59.16;95267.34;5044829;28;20484;-73
2022/01/27 10:01:31;;;;;;;15.97;11.07;;;;;;;4.67;59.16;95261.03;5027855;28;20473;-72
2022/01/27 10:04:00;;;;;;;14.73;13.27;;;;;;;4.41;59.24;95264.25;5036867;28;20430;-73
2022/01/27 10:06:30;;;;;;;12.83;11.37;;;;;;;4.48;59.13;95260.16;5047851;28;20218;-73
2022/01/27 10:09:16;;;;;;;18.37;13.37;;;;;;;4.62;59.38;95264.03;5047901;28;20409;-72
2022/01/27 10:11:44;;;;;;;15.97;12.43;;;;;;;4.50;59.07;95258.22;5037660;28;20434;-72
2022/01/27 10:14:27;;;;;;;18.47;12.43;;;;;;;5.40;56.92;95261.06;5012735;28;20482;-73
2022/01/27 10:17:00;;;;;;;14.90;10.13;;;;;;;4.88;57.21;95259.03;5027489;28;20433;-73
2022/01/27 10:19:26;;;;;;;13.33;10.50;;;;;;;4.81;58.08;95255.38;5027119;28;20411;-73
2022/01/27 10:22:00;;;;;;;12.97;11.67;;;;;;;4.11;59.37;95258.31;5020539;28;21045;-73
2022/01/27 10:24:28;;;;;;;15.60;12.17;;;;;;;4.19;58.79;95252.47;5027120;28;20411;-72
2022/01/27 10:27:29;;;;;;;10.17;8.40;;;;;;;4.47;57.49;95260.28;5026737;28;20474;-74
2022/01/27 10:32:42;;;;;;;11.77;10.43;;;;;;;5.13;55.88;95251.53;5024262;28;20462;-72
2022/01/27 10:35:10;;;;;;;24.30;14.10;;;;;;;4.71;57.13;95254.63;5026768;28;20482;-73
2022/01/27 10:38:12;;;;;;;17.03;11.40;;;;;;;5.38;55.45;95250.00;5025926;28;20483;-72
2022/01/27 10:40:42;;;;;;;15.20;10.07;;;;;;;5.30;54.81;95236.97;5029826;28;20434;-72
2022/01/27 10:43:21;;;;;;;12.17;8.70;;;;;;;5.72;53.63;95240.75;5026218;28;20423;-72
2022/01/27 10:46:23;;;;;;;8.83;7.93;;;;;;;5.12;55.03;95236.91;5029323;28;20438;-72
2022/01/27 10:49:00;;;;;;;13.27;8.93;;;;;;;5.18;54.66;95228.56;5024854;28;20462;-73
2022/01/27 10:51:31;;;;;;;12.40;9.00;;;;;;;5.58;53.38;95224.72;5029434;28;20428;-73
2022/01/27 10:54:22;;;;;;;14.37;10.43;;;;;;;6.13;52.31;95233.28;5037222;28;20495;-73
2022/01/27 10:56:49;;;;;;;12.20;8.90;;;;;;;6.12;51.52;95226.47;5025532;28;20903;-73
2022/01/27 10:59:19;;;;;;;18.10;11.20;;;;;;;5.78;52.47;95219.38;5027025;28;20869;-70
2022/01/27 11:01:50;;;;;;;12.63;5.90;;;;;;;6.36;50.48;95220.63;5027035;28;20796;-72
2022/01/27 11:04:18;;;;;;;13.67;7.37;;;;;;;5.74;51.36;95212.84;5029173;28;20411;-71
2022/01/27 11:06:59;;;;;;;15.97;8.60;;;;;;;6.33;50.78;95219.13;5033702;28;20438;-71
2022/01/27 11:09:25;;;;;;;9.50;7.73;;;;;;;6.25;49.73;95221.69;5032170;28;20411;-71
2022/01/27 11:11:53;;;;;;;13.90;8.13;;;;;;;6.86;49.05;95216.47;5028064;28;20474;-71
2022/01/27 11:14:20;;;;;;;23.83;10.50;;;;;;;6.39;50.53;95220.31;5026804;28;20474;-71
2022/01/27 11:16:49;;;;;;;12.60;9.57;;;;;;;6.17;50.69;95214.66;5031819;28;20425;-71
2022/01/27 11:19:23;;;;;;;24.13;7.87;;;;;;;5.87;50.56;95197.69;5027427;28;20459;-72
2022/01/27 11:27:47;;;;;;;9.10;7.80;;;;;;;5.85;51.61;95204.81;5028746;28;20498;-72
2022/01/27 11:30:12;;;;;;;9.13;7.93;;;;;;;6.18;49.98;95203.28;5025996;28;20423;-72
2022/01/27 11:32:54;;;;;;;14.83;10.63;;;;;;;5.90;50.47;95196.56;5025493;28;20756;-72
2022/01/27 11:35:25;;;;;;;13.97;10.00;;;;;;;6.45;49.45;95191.91;5026432;28;20222;-72
2022/01/27 11:37:56;;;;;;;10.67;8.10;;;;;;;6.23;49.47;95192.44;5033102;28;20403;-73
2022/01/27 11:40:34;;;;;;;11.60;8.80;;;;;;;5.61;50.14;95177.69;5025952;28;20862;-73
2022/01/27 11:42:59;;;;;;;20.20;10.67;;;;;;;5.86;50.15;95191.69;5014443;28;20434;-72
2022/01/27 11:45:40;;;;;;;8.73;6.97;;;;;;;5.96;49.41;95191.63;5045666;28;20422;-72
2022/01/27 11:48:15;;;;;;;7.73;6.50;;;;;;;5.70;49.08;95175.97;5045556;28;20195;-73
2022/01/27 11:50:56;;;;;;;9.50;7.97;;;;;;;5.79;49.46;95185.47;5024663;28;20434;-72
2022/01/27 11:53:40;;;;;;;19.33;11.43;;;;;;;5.95;48.86;95194.34;5004677;28;20463;-72
2022/01/27 11:56:08;;;;;;;18.07;12.43;;;;;;;5.76;49.16;95179.75;5013584;28;20435;-72
2022/01/27 11:58:46;;;;;;;5.53;4.80;;;;;;;4.48;51.23;95174.63;5025967;28;20457;-72
2022/01/27 12:01:17;;;;;;;8.93;5.30;;;;;;;5.19;50.10;95188.69;5002045;28;20435;-72
2022/01/27 12:04:05;;;;;;;15.63;9.63;;;;;;;5.52;49.14;95177.78;5025539;28;20423;-72
2022/01/27 12:06:34;;;;;;;16.83;11.00;;;;;;;5.56;50.39;95190.31;5025753;28;20407;-72
2022/01/27 12:09:18;;;;;;;10.50;8.00;;;;;;;6.24;48.21;95178.47;5024472;28;20442;-71
2022/01/27 12:12:12;;;;;;;7.47;6.77;;;;;;;5.86;49.22;95177.88;5026734;28;20940;-72
2022/01/27 12:14:40;;;;;;;13.10;8.27;;;;;;;6.39;48.76;95187.34;5045213;28;20462;-72
2022/01/27 12:17:08;;;;;;;6.17;5.17;;;;;;;5.83;49.14;95180.78;5045018;28;20513;-73
2022/01/27 12:19:56;;;;;;;12.63;7.83;;;;;;;6.22;48.40;95183.84;5032706;28;20437;-73
2022/01/27 12:22:55;;;;;;;12.77;10.37;;;;;;;5.87;47.71;95169.13;5044609;28;20890;-72
2022/01/27 12:25:21;;;;;;;19.27;10.37;;;;;;;6.72;47.14;95174.47;5027520;28;20424;-73
2022/01/27 12:27:52;;;;;;;9.30;7.97;;;;;;;6.50;46.64;95162.03;5038007;28;20495;-73
2022/01/27 12:30:18;;;;;;;11.13;8.10;;;;;;;6.40;46.41;95160.38;5044969;28;20215;-73
2022/01/27 12:32:45;;;;;;;16.30;9.90;;;;;;;7.09;45.50;95156.84;5037005;28;20426;-72
2022/01/27 12:35:13;;;;;;;13.87;10.00;;;;;;;6.82;46.20;95151.75;5025312;28;20521;-72
2022/01/27 12:37:47;;;;;;;23.03;13.90;;;;;;;6.89;45.53;95151.94;5030851;28;20453;-72
2022/01/27 12:40:26;;;;;;;18.80;13.07;;;;;;;6.68;45.90;95147.16;5044500;28;20452;-72